Time;durP1;ratioP1;P1;durP2;ratioP2;P2;SDS_P1;SDS_P2;PMS_P1;PMS_P2;Temp;Humidity;BMP_temperature;BMP_pressure;BME280_temperature;BME280_humidity;BME280_pressure;Samples;Min_cycle;Max_cycle;Signal;HPM_P1;HPM_P2
2022/06/20 00:00:24;;;;;;;10.82;2.53;;;13.40;99.90;;;;;;5040129;28;20045;-59
2022/06/20 00:02:53;;;;;;;7.70;2.20;;;13.40;99.90;;;;;;5039309;28;20051;-58
2022/06/20 00:05:36;;;;;;;7.93;2.17;;;13.60;99.90;;;;;;5038936;28;20124;-59
2022/06/20 00:08:02;;;;;;;9.48;2.88;;;13.50;99.90;;;;;;5040004;28;20049;-60
2022/06/20 00:10:29;;;;;;;10.75;2.13;;;13.40;99.90;;;;;;5038760;28;20057;-59
2022/06/20 00:12:56;;;;;;;7.32;2.00;;;13.40;99.90;;;;;;5040076;28;20065;-60
2022/06/20 00:15:26;;;;;;;9.68;2.33;;;13.40;99.90;;;;;;5038581;28;20050;-59
2022/06/20 00:17:53;;;;;;;9.77;2.13;;;13.40;99.90;;;;;;5039324;28;20059;-60
2022/06/20 00:20:19;;;;;;;8.40;2.00;;;13.30;99.90;;;;;;5039351;28;20454;-59
2022/06/20 00:22:45;;;;;;;6.50;1.88;;;13.30;99.90;;;;;;5024541;28;20061;-59
2022/06/20 00:25:10;;;;;;;6.20;1.70;;;13.30;99.90;;;;;;5019948;28;20038;-60
2022/06/20 00:27:37;;;;;;;5.93;1.58;;;13.30;99.90;;;;;;5018521;28;20055;-60
2022/06/20 00:30:03;;;;;;;10.05;2.10;;;13.30;99.90;;;;;;5019913;28;20042;-58
2022/06/20 00:32:29;;;;;;;10.63;1.80;;;13.30;99.90;;;;;;5018546;28;20046;-60
2022/06/20 00:34:55;;;;;;;7.93;1.75;;;13.40;99.90;;;;;;5019566;28;20057;-60
2022/06/20 00:37:21;;;;;;;8.40;1.58;;;13.40;99.90;;;;;;5019472;28;20042;-59
2022/06/20 00:39:49;;;;;;;7.93;1.67;;;13.40;99.90;;;;;;5018917;28;20048;-60
2022/06/20 00:42:16;;;;;;;5.82;1.65;;;13.50;99.90;;;;;;5019762;28;20045;-60
2022/06/20 00:44:48;;;;;;;8.38;1.90;;;13.30;99.90;;;;;;5018111;28;20053;-59
2022/06/20 00:47:24;;;;;;;7.32;1.60;;;13.20;99.90;;;;;;5019865;28;20065;-60
2022/06/20 00:49:57;;;;;;;8.15;1.60;;;13.20;99.90;;;;;;5018772;28;20061;-59
2022/06/20 00:52:36;;;;;;;9.50;1.80;;;13.20;99.90;;;;;;5019197;28;20093;-59
2022/06/20 00:55:35;;;;;;;9.32;1.90;;;13.10;99.90;;;;;;5019771;28;20041;-60
2022/06/20 00:58:30;;;;;;;8.13;1.85;;;13.10;99.90;;;;;;5018364;28;20081;-60
2022/06/20 01:00:58;;;;;;;6.70;2.03;;;13.10;99.90;;;;;;5008116;28;20133;-59
2022/06/20 01:03:28;;;;;;;10.98;2.53;;;13.10;99.90;;;;;;5019628;28;20071;-60
2022/06/20 01:06:02;;;;;;;10.05;1.92;;;13.10;99.90;;;;;;5020985;28;20061;-60
2022/06/20 01:08:32;;;;;;;8.27;1.90;;;13.10;99.90;;;;;;5023782;28;20498;-60
2022/06/20 01:11:04;;;;;;;7.05;1.80;;;13.10;99.90;;;;;;5022114;28;20073;-59
2022/06/20 01:13:30;;;;;;;7.22;1.88;;;13.10;99.90;;;;;;5023144;28;20049;-60
2022/06/20 01:16:12;;;;;;;11.02;2.42;;;13.10;99.90;;;;;;5023040;28;20053;-60
2022/06/20 01:18:40;;;;;;;8.18;2.38;;;13.20;99.90;;;;;;5022242;28;20038;-60
2022/06/20 01:21:14;;;;;;;9.85;2.20;;;13.10;99.90;;;;;;5022768;28;20045;-60
2022/06/20 01:24:07;;;;;;;8.82;1.90;;;13.20;99.90;;;;;;5041867;28;20468;-59
2022/06/20 01:26:49;;;;;;;7.75;2.15;;;13.10;99.90;;;;;;5042417;28;20147;-59
2022/06/20 01:29:16;;;;;;;7.80;1.77;;;13.00;99.90;;;;;;5043217;28;20041;-59
2022/06/20 01:31:47;;;;;;;8.50;2.05;;;13.00;99.90;;;;;;5041745;28;20117;-58
2022/06/20 01:34:18;;;;;;;7.82;1.98;;;13.00;99.90;;;;;;5043082;28;20081;-59
2022/06/20 01:39:36;;;;;;;8.23;1.83;;;12.90;99.90;;;;;;5042366;28;20083;-59
2022/06/20 01:42:21;;;;;;;7.68;1.77;;;12.90;99.90;;;;;;5042839;28;20091;-59
2022/06/20 01:48:06;;;;;;;6.60;1.80;;;12.90;99.90;;;;;;5042371;28;20169;-59
2022/06/20 01:50:33;;;;;;;7.78;2.22;;;12.90;99.90;;;;;;5042419;28;20100;-58
2022/06/20 01:53:01;;;;;;;9.52;1.90;;;12.80;99.90;;;;;;5041283;28;20053;-57
2022/06/20 01:55:27;;;;;;;8.80;2.38;;;12.70;99.90;;;;;;5042786;28;20068;-59
2022/06/20 01:58:04;;;;;;;10.60;3.20;;;12.80;99.90;;;;;;5040861;28;20053;-58
2022/06/20 02:00:30;;;;;;;13.15;2.30;;;12.80;99.90;;;;;;5042208;28;20033;-58
2022/06/20 02:03:01;;;;;;;8.00;1.75;;;12.80;99.90;;;;;;5041815;28;20084;-59
2022/06/20 02:05:29;;;;;;;9.38;2.25;;;12.80;99.90;;;;;;5039733;28;20061;-59
2022/06/20 02:07:58;;;;;;;8.05;2.20;;;12.80;99.90;;;;;;5042345;28;20045;-59
2022/06/20 02:10:42;;;;;;;9.10;2.30;;;12.70;99.90;;;;;;5040718;28;20046;-59
2022/06/20 02:13:08;;;;;;;9.38;2.25;;;12.60;99.90;;;;;;5042368;28;20041;-59
2022/06/20 02:15:35;;;;;;;8.25;2.47;;;12.50;99.90;;;;;;5040932;28;20050;-59
2022/06/20 02:18:03;;;;;;;8.65;2.08;;;12.50;99.90;;;;;;5040170;28;20548;-58
2022/06/20 02:20:33;;;;;;;8.52;2.03;;;12.40;99.90;;;;;;5042004;28;20045;-58
2022/06/20 02:22:59;;;;;;;10.02;2.30;;;12.20;99.90;;;;;;5024289;28;20154;-58
2022/06/20 02:25:31;;;;;;;9.65;3.97;;;12.10;99.90;;;;;;5020884;28;20085;-59
2022/06/20 02:28:04;;;;;;;11.27;2.80;;;12.30;99.90;;;;;;5020805;28;20073;-60
2022/06/20 02:30:30;;;;;;;9.85;2.80;;;12.30;99.90;;;;;;5021971;28;20046;-59
2022/06/20 02:33:01;;;;;;;9.43;2.60;;;12.30;99.90;;;;;;5021345;28;20504;-59
2022/06/20 02:35:29;;;;;;;10.98;2.40;;;12.30;99.90;;;;;;5020995;28;20049;-59
2022/06/20 02:37:55;;;;;;;9.68;2.55;;;12.30;99.90;;;;;;5021929;28;20046;-59
2022/06/20 02:40:24;;;;;;;7.38;2.33;;;12.20;99.90;;;;;;5020517;28;20081;-57
2022/06/20 02:42:57;;;;;;;9.20;2.20;;;12.20;99.90;;;;;;5021956;28;20581;-59
2022/06/20 02:45:24;;;;;;;7.95;2.63;;;12.10;99.90;;;;;;5020638;28;20057;-59
2022/06/20 02:47:55;;;;;;;7.57;2.13;;;12.00;99.90;;;;;;5020078;28;20069;-58
2022/06/20 02:50:29;;;;;;;9.20;3.22;;;12.10;99.90;;;;;;5021469;28;20053;-58
2022/06/20 02:53:12;;;;;;;9.75;2.95;;;12.00;99.90;;;;;;5020372;28;20063;-59
2022/06/20 02:55:38;;;;;;;10.30;3.17;;;12.10;99.90;;;;;;5020301;28;20034;-59
2022/06/20 02:58:13;;;;;;;12.80;2.95;;;12.10;99.90;;;;;;5020133;28;20041;-60
2022/06/20 03:00:58;;;;;;;8.65;2.97;;;12.20;99.90;;;;;;5021209;28;20073;-59
2022/06/20 03:03:30;;;;;;;9.48;3.08;;;12.20;99.90;;;;;;5021349;28;20322;-59
2022/06/20 03:05:56;;;;;;;;;;;12.10;99.90;;;;;;5020395;28;20048;-59
2022/06/20 03:08:22;;;;;;;8.95;2.88;;;12.10;99.90;;;;;;5021443;28;19921;-59
2022/06/20 03:10:50;;;;;;;11.73;2.80;;;11.90;99.90;;;;;;5020042;28;20042;-59
2022/06/20 03:13:18;;;;;;;6.65;2.90;;;11.80;99.90;;;;;;5021145;28;20042;-59
2022/06/20 03:15:44;;;;;;;12.73;3.78;;;11.70;99.90;;;;;;5020566;28;20030;-59
2022/06/20 03:18:16;;;;;;;9.23;3.00;;;11.70;99.90;;;;;;5020424;28;20046;-59
2022/06/20 03:20:42;;;;;;;14.50;3.95;;;11.80;99.90;;;;;;5020993;28;20115;-59
2022/06/20 03:23:21;;;;;;;12.25;3.17;;;11.80;99.90;;;;;;5037089;28;20103;-59
2022/06/20 03:25:47;;;;;;;9.75;3.22;;;11.80;99.90;;;;;;5040882;28;20053;-59
2022/06/20 03:28:18;;;;;;;11.15;3.25;;;11.90;99.90;;;;;;5039088;28;20116;-58
2022/06/20 03:30:45;;;;;;;12.90;4.22;;;11.80;99.90;;;;;;5040339;28;20042;-59
2022/06/20 03:33:13;;;;;;;10.88;3.50;;;11.80;99.90;;;;;;5040333;28;20042;-58
2022/06/20 03:35:44;;;;;;;11.70;3.33;;;11.80;99.90;;;;;;5039408;28;20084;-59
2022/06/20 03:38:12;;;;;;;9.18;3.30;;;11.90;99.90;;;;;;5040747;28;20072;-58
2022/06/20 03:40:39;;;;;;;10.63;3.20;;;11.80;99.90;;;;;;5039311;28;20045;-58
2022/06/20 03:43:07;;;;;;;9.10;3.20;;;11.70;99.90;;;;;;5040419;28;20148;-58
2022/06/20 03:45:36;;;;;;;12.18;3.33;;;11.70;99.90;;;;;;5039464;28;20045;-59
2022/06/20 03:48:14;;;;;;;9.65;3.42;;;11.70;99.90;;;;;;5039796;28;20034;-59
2022/06/20 03:51:02;;;;;;;13.05;3.38;;;11.70;99.90;;;;;;5040421;28;20076;-59
2022/06/20 03:53:43;;;;;;;9.85;3.42;;;11.70;99.90;;;;;;5038947;28;20052;-58
2022/06/20 03:56:18;;;;;;;9.93;3.30;;;11.70;99.90;;;;;;5040377;28;20037;-59
2022/06/20 03:59:13;;;;;;;10.95;3.65;;;11.70;99.90;;;;;;5039603;28;20045;-59
2022/06/20 04:01:59;;;;;;;12.35;3.50;;;11.60;99.90;;;;;;5038943;28;20046;-59
2022/06/20 04:05:00;;;;;;;10.38;3.40;;;11.60;99.90;;;;;;5039864;28;20528;-59
2022/06/20 04:07:39;;;;;;;10.80;3.08;;;11.70;99.90;;;;;;5039540;28;20486;-58
2022/06/20 04:13:06;;;;;;;8.75;3.67;;;11.80;99.90;;;;;;5039957;28;20056;-59
2022/06/20 04:16:07;;;;;;;9.18;3.65;;;11.90;99.90;;;;;;5038715;28;20054;-59
2022/06/20 04:18:52;;;;;;;9.93;3.40;;;11.90;99.90;;;;;;5018795;28;20058;-58
2022/06/20 04:21:33;;;;;;;12.52;3.45;;;12.00;99.90;;;;;;5037630;28;20046;-58
2022/06/20 04:24:17;;;;;;;12.93;3.72;;;12.00;99.90;;;;;;5019006;28;20414;-58
2022/06/20 04:27:01;;;;;;;10.68;3.75;;;12.10;99.90;;;;;;5019201;28;20091;-59
2022/06/20 04:29:33;;;;;;;10.95;3.55;;;12.20;99.90;;;;;;5019951;28;20046;-58
2022/06/20 04:32:15;;;;;;;11.07;3.97;;;12.20;99.90;;;;;;5018495;28;20037;-58
2022/06/20 04:34:49;;;;;;;13.05;4.65;;;12.20;99.90;;;;;;5019729;28;20056;-59
2022/06/20 04:37:40;;;;;;;11.38;3.67;;;12.20;99.90;;;;;;5019382;28;20072;-59
2022/06/20 04:40:27;;;;;;;11.30;3.40;;;12.20;99.90;;;;;;5017811;28;20053;-59
2022/06/20 04:43:01;;;;;;;11.05;3.65;;;12.10;99.90;;;;;;5019865;28;20508;-59
2022/06/20 04:45:39;;;;;;;10.75;3.22;;;12.00;99.90;;;;;;5018441;28;20090;-58
2022/06/20 04:48:13;;;;;;;9.02;3.78;;;12.00;99.90;;;;;;5018893;28;20045;-59
2022/06/20 04:50:44;;;;;;;9.75;3.70;;;12.10;99.90;;;;;;5019805;28;20467;-59
2022/06/20 04:53:13;;;;;;;13.13;3.63;;;11.90;99.90;;;;;;5018316;28;20045;-59
2022/06/20 04:55:44;;;;;;;9.93;4.15;;;12.20;99.90;;;;;;5020006;28;20056;-59
2022/06/20 04:58:14;;;;;;;9.73;3.72;;;12.30;99.90;;;;;;5018431;28;20045;-59
2022/06/20 05:00:43;;;;;;;11.38;3.58;;;12.40;99.90;;;;;;5019149;28;20056;-59
2022/06/20 05:03:13;;;;;;;14.13;4.03;;;12.40;99.90;;;;;;5018968;28;20053;-59
2022/06/20 05:05:42;;;;;;;9.60;3.40;;;12.50;99.90;;;;;;5018044;28;20058;-59
2022/06/20 05:08:13;;;;;;;10.52;4.13;;;12.70;99.90;;;;;;5019547;28;20044;-58
2022/06/20 05:10:49;;;;;;;12.65;4.00;;;12.60;99.90;;;;;;5018509;28;20103;-60
2022/06/20 05:13:22;;;;;;;12.18;3.88;;;12.70;99.90;;;;;;5019620;28;20484;-59
2022/06/20 05:15:50;;;;;;;12.07;4.25;;;12.90;99.90;;;;;;5018709;28;20046;-60
2022/06/20 05:18:22;;;;;;;13.93;4.47;;;12.90;99.90;;;;;;5018359;28;20508;-59
2022/06/20 05:20:50;;;;;;;14.57;4.93;;;13.00;99.90;;;;;;5019624;28;20046;-60
2022/06/20 05:23:27;;;;;;;10.07;3.85;;;12.90;99.90;;;;;;5036365;28;20056;-58
2022/06/20 05:25:53;;;;;;;11.07;4.82;;;12.90;99.90;;;;;;5039129;28;20065;-59
2022/06/20 05:28:24;;;;;;;13.73;4.50;;;12.90;99.90;;;;;;5038407;28;20914;-59
2022/06/20 05:30:50;;;;;;;12.45;4.35;;;13.00;99.90;;;;;;5038484;28;20164;-60
2022/06/20 05:33:19;;;;;;;11.55;4.80;;;13.20;99.90;;;;;;5038877;28;20045;-59
2022/06/20 05:35:53;;;;;;;12.05;4.38;;;13.30;99.90;;;;;;5037552;28;20107;-59
2022/06/20 05:38:36;;;;;;;15.30;4.63;;;13.40;99.90;;;;;;5039190;28;20114;-60
2022/06/20 05:41:04;;;;;;;11.98;3.85;;;13.50;99.90;;;;;;5037960;28;20057;-60
2022/06/20 05:43:31;;;;;;;13.88;4.40;;;13.60;99.90;;;;;;5036991;28;20053;-60
2022/06/20 05:46:06;;;;;;;18.02;4.25;;;13.70;99.90;;;;;;5038288;28;20135;-59
2022/06/20 05:48:59;;;;;;;14.43;4.22;;;13.70;99.90;;;;;;5037731;28;20045;-60
2022/06/20 05:51:27;;;;;;;13.35;4.28;;;13.80;99.90;;;;;;5040926;28;20060;-58
2022/06/20 05:53:58;;;;;;;13.48;4.00;;;13.90;99.90;;;;;;5041230;28;20033;-59
2022/06/20 05:56:39;;;;;;;12.23;4.00;;;14.00;99.90;;;;;;5042111;28;20053;-59
2022/06/20 05:59:06;;;;;;;14.43;3.92;;;14.20;99.90;;;;;;5042308;28;20496;-58
2022/06/20 06:01:37;;;;;;;14.75;4.10;;;14.30;99.90;;;;;;5041076;28;20095;-58
2022/06/20 06:04:35;;;;;;;11.32;3.67;;;14.20;99.90;;;;;;5042350;28;20050;-59
2022/06/20 06:07:05;;;;;;;14.00;3.50;;;14.20;99.90;;;;;;5041687;28;20057;-59
2022/06/20 06:09:40;;;;;;;11.05;3.50;;;14.00;99.90;;;;;;5041369;28;20042;-59
2022/06/20 06:12:13;;;;;;;9.73;3.92;;;13.80;99.90;;;;;;5042230;28;20054;-59
2022/06/20 06:14:48;;;;;;;14.18;4.05;;;13.80;99.90;;;;;;5040560;28;20045;-58
2022/06/20 06:17:23;;;;;;;12.90;3.42;;;13.70;99.90;;;;;;5042155;28;20052;-58
2022/06/20 06:19:55;;;;;;;13.52;3.67;;;13.70;99.90;;;;;;5039657;28;20049;-58
2022/06/20 06:22:34;;;;;;;9.57;4.63;;;13.90;99.90;;;;;;5030173;28;20034;-59
2022/06/20 06:25:16;;;;;;;9.68;3.40;;;14.00;99.90;;;;;;5021934;28;20097;-58
2022/06/20 06:27:43;;;;;;;;;;;14.20;99.90;;;;;;5021195;28;20041;-58
2022/06/20 06:30:43;;;;;;;15.07;4.38;;;14.50;99.90;;;;;;5022000;28;19922;-58
2022/06/20 06:33:09;;;;;;;16.70;3.75;;;14.50;99.90;;;;;;5013421;28;20136;-58
2022/06/20 06:35:44;;;;;;;11.70;3.40;;;14.50;99.90;;;;;;5020834;28;20116;-59
2022/06/20 06:38:15;;;;;;;16.55;4.07;;;14.50;99.90;;;;;;5022054;28;20055;-58
2022/06/20 06:40:48;;;;;;;10.15;3.80;;;14.80;99.90;;;;;;5020595;28;20575;-59
2022/06/20 06:43:32;;;;;;;15.93;3.42;;;14.90;99.90;;;;;;5021566;28;20050;-59
2022/06/20 06:46:00;;;;;;;11.00;2.90;;;14.70;99.90;;;;;;5021377;28;20069;-59
2022/06/20 06:48:52;;;;;;;13.00;3.92;;;14.60;99.90;;;;;;5020557;28;20042;-59
2022/06/20 06:51:33;;;;;;;15.10;3.10;;;14.40;99.90;;;;;;5021811;28;20073;-59
2022/06/20 06:54:15;;;;;;;12.93;3.60;;;14.40;99.90;;;;;;5020750;28;20053;-59
2022/06/20 06:56:44;;;;;;;;;;;14.80;99.90;;;;;;5021226;28;20046;-59
2022/06/20 06:59:54;;;;;;;15.15;2.78;;;15.10;99.90;;;;;;5021714;28;19961;-59
2022/06/20 07:02:22;;;;;;;10.13;2.60;;;14.80;99.90;;;;;;4958389;28;20050;-58
2022/06/20 07:05:13;;;;;;;11.32;3.10;;;14.50;99.90;;;;;;5008891;28;20085;-58
2022/06/20 07:07:58;;;;;;;9.20;2.25;;;14.40;99.90;;;;;;5021216;28;20053;-59
2022/06/20 07:10:26;;;;;;;11.85;2.72;;;14.40;99.90;;;;;;5018372;28;20113;-59
2022/06/20 07:12:58;;;;;;;14.45;2.92;;;14.80;99.90;;;;;;5021482;28;20077;-59
2022/06/20 07:15:25;;;;;;;9.53;2.60;;;15.00;99.90;;;;;;5019993;28;20106;-59
2022/06/20 07:18:01;;;;;;;8.35;2.20;;;15.00;99.90;;;;;;5020563;28;20291;-59
2022/06/20 07:20:36;;;;;;;11.60;2.42;;;15.20;99.90;;;;;;5020879;28;20054;-59
2022/06/20 07:23:08;;;;;;;9.23;2.70;;;15.40;99.90;;;;;;5036387;28;20045;-58
2022/06/20 07:25:38;;;;;;;10.63;2.10;;;15.30;99.90;;;;;;5041032;28;20130;-58
2022/06/20 07:28:13;;;;;;;9.48;2.28;;;15.10;99.90;;;;;;5039519;28;20041;-59
2022/06/20 07:30:45;;;;;;;8.68;1.90;;;15.00;99.90;;;;;;5040038;28;20544;-56
2022/06/20 07:33:21;;;;;;;9.48;2.10;;;14.80;99.90;;;;;;5039049;28;20072;-59
2022/06/20 07:35:54;;;;;;;11.00;2.20;;;14.70;99.90;;;;;;5039327;28;20505;-59
2022/06/20 07:38:41;;;;;;;6.53;1.98;;;14.90;99.90;;;;;;5040631;28;20061;-58
2022/06/20 07:41:09;;;;;;;11.88;2.28;;;15.30;99.90;;;;;;5039592;28;20050;-59
2022/06/20 07:43:39;;;;;;;10.52;2.08;;;15.10;99.90;;;;;;5039679;28;20170;-59
2022/06/20 07:46:20;;;;;;;8.32;2.08;;;15.20;99.90;;;;;;5039939;28;20639;-59
2022/06/20 07:48:49;;;;;;;6.82;1.80;;;15.50;99.90;;;;;;5037900;28;20076;-59
2022/06/20 07:51:23;;;;;;;8.25;2.05;;;15.80;99.90;;;;;;5040534;28;20049;-59
2022/06/20 07:54:24;;;;;;;6.55;2.20;;;15.70;99.90;;;;;;5039226;28;20072;-58
2022/06/20 07:57:15;;;;;;;9.93;2.20;;;15.60;99.90;;;;;;5039134;28;20131;-58
2022/06/20 07:59:48;;;;;;;10.85;2.53;;;15.60;99.90;;;;;;5037560;28;20061;-58
2022/06/20 08:02:28;;;;;;;7.45;1.80;;;15.70;99.90;;;;;;5038880;28;20037;-58
2022/06/20 08:04:58;;;;;;;11.65;2.35;;;15.60;99.90;;;;;;5039495;28;20049;-59
2022/06/20 08:07:47;;;;;;;5.85;2.10;;;15.60;99.90;;;;;;5039788;28;20081;-59
2022/06/20 08:10:26;;;;;;;8.68;2.63;;;15.80;99.90;;;;;;5038381;28;20057;-60
2022/06/20 08:13:17;;;;;;;10.35;2.20;;;15.50;99.90;;;;;;5039681;28;20065;-59
2022/06/20 08:16:07;;;;;;;9.63;2.28;;;15.40;99.90;;;;;;5039135;28;20060;-60
2022/06/20 08:18:33;;;;;;;10.85;2.40;;;15.80;99.90;;;;;;5038691;28;20039;-58
2022/06/20 08:21:11;;;;;;;8.73;2.05;;;15.70;99.90;;;;;;5039894;28;20088;-57
2022/06/20 08:23:45;;;;;;;8.63;2.40;;;15.50;99.90;;;;;;5018729;28;20076;-59
2022/06/20 08:26:19;;;;;;;10.30;2.67;;;15.80;99.90;;;;;;5018137;28;20677;-59
2022/06/20 08:28:56;;;;;;;8.98;2.30;;;15.90;99.90;;;;;;5019683;28;20046;-59
2022/06/20 08:31:34;;;;;;;9.05;2.10;;;15.60;99.90;;;;;;5018648;28;20631;-59
2022/06/20 08:34:10;;;;;;;9.90;2.53;;;15.40;99.90;;;;;;5020130;28;20077;-59
2022/06/20 08:36:45;;;;;;;6.80;2.10;;;15.60;99.90;;;;;;5018740;28;20057;-59
2022/06/20 08:39:29;;;;;;;9.30;2.88;;;15.70;99.90;;;;;;5019285;28;20101;-59
2022/06/20 08:42:30;;;;;;;9.20;2.15;;;15.40;99.90;;;;;;5019661;28;20048;-59
2022/06/20 08:45:12;;;;;;;8.75;2.15;;;15.20;99.90;;;;;;5018080;28;20046;-59
2022/06/20 08:48:18;;;;;;;7.75;1.83;;;15.50;99.90;;;;;;5019354;28;20046;-58
2022/06/20 08:50:59;;;;;;;6.55;1.88;;;15.50;99.90;;;;;;5019938;28;20050;-59
2022/06/20 08:53:48;;;;;;;9.55;2.15;;;15.60;99.90;;;;;;5018305;28;20053;-59
2022/06/20 08:56:37;;;;;;;6.68;1.75;;;15.90;99.90;;;;;;5019242;28;20578;-59
2022/06/20 08:59:26;;;;;;;8.63;2.30;;;16.10;99.90;;;;;;5019602;28;20042;-59
2022/06/20 09:01:51;;;;;;;9.10;2.00;;;16.20;99.90;;;;;;5013857;28;20050;-59
2022/06/20 09:04:20;;;;;;;8.27;1.67;;;16.40;99.90;;;;;;5019464;28;20109;-58
2022/06/20 09:07:20;;;;;;;7.53;1.92;;;16.20;99.90;;;;;;5017181;28;20429;-59
2022/06/20 09:10:16;;;;;;;6.32;1.58;;;16.30;99.90;;;;;;5018458;28;20402;-59
2022/06/20 09:13:10;;;;;;;7.25;1.67;;;16.20;99.90;;;;;;5019580;28;20045;-59
2022/06/20 09:16:01;;;;;;;10.15;2.15;;;16.30;99.90;;;;;;5018561;28;20517;-59
2022/06/20 09:18:45;;;;;;;7.28;1.90;;;16.50;99.90;;;;;;5018092;28;20084;-59
2022/06/20 09:21:17;;;;;;;12.10;2.97;;;16.60;99.90;;;;;;5021004;28;20046;-60
2022/06/20 09:24:22;;;;;;;8.07;2.30;;;16.70;99.90;;;;;;5037909;28;20041;-60
2022/06/20 09:27:07;;;;;;;8.82;2.22;;;16.50;99.90;;;;;;5040839;28;20037;-60
2022/06/20 09:29:38;;;;;;;9.15;2.10;;;16.20;99.90;;;;;;5043169;28;20052;-59
2022/06/20 09:32:35;;;;;;;7.22;1.98;;;16.50;99.90;;;;;;5041596;28;20111;-59
2022/06/20 09:35:22;;;;;;;6.18;1.70;;;16.10;99.90;;;;;;5042213;28;20049;-60
2022/06/20 09:38:16;;;;;;;5.18;1.88;;;16.60;99.90;;;;;;5042908;28;20041;-60
2022/06/20 09:41:03;;;;;;;6.90;1.65;;;16.20;99.90;;;;;;5041553;28;20101;-59
2022/06/20 09:43:49;;;;;;;7.78;1.65;;;16.60;99.90;;;;;;5041966;28;20161;-59
2022/06/20 09:46:35;;;;;;;6.38;1.60;;;16.40;99.90;;;;;;5041377;28;20123;-59
2022/06/20 09:49:13;;;;;;;7.35;1.60;;;16.60;99.90;;;;;;5041233;28;20042;-60
2022/06/20 09:51:48;;;;;;;11.27;2.55;;;17.00;99.90;;;;;;5042709;28;20046;-61
2022/06/20 09:54:35;;;;;;;7.10;1.60;;;16.60;99.90;;;;;;5041982;28;20045;-59
2022/06/20 09:57:21;;;;;;;5.00;1.73;;;16.80;99.90;;;;;;5041272;28;20051;-59
2022/06/20 09:59:50;;;;;;;7.57;1.98;;;16.50;99.90;;;;;;5042599;28;20052;-59
2022/06/20 10:02:34;;;;;;;7.80;1.63;;;16.80;99.90;;;;;;5041326;28;20106;-59
2022/06/20 10:05:36;;;;;;;6.45;1.63;;;16.60;99.90;;;;;;5040035;28;20076;-59
2022/06/20 10:08:19;;;;;;;9.68;1.75;;;16.70;99.90;;;;;;5042367;28;20052;-59
2022/06/20 10:10:57;;;;;;;7.35;1.60;;;16.80;99.90;;;;;;5039875;28;20049;-58
2022/06/20 10:13:48;;;;;;;6.82;1.60;;;17.00;99.90;;;;;;5041779;28;20060;-58
2022/06/20 10:16:34;;;;;;;7.47;2.00;;;16.80;99.90;;;;;;5040911;28;20080;-59
2022/06/20 10:19:14;;;;;;;5.03;1.38;;;17.10;99.90;;;;;;5040882;28;20045;-59
2022/06/20 10:22:05;;;;;;;6.35;1.70;;;17.20;99.90;;;;;;5036110;28;20133;-59
2022/06/20 10:24:47;;;;;;;8.17;2.20;;;17.10;99.90;;;;;;5021013;28;20069;-59
2022/06/20 10:27:37;;;;;;;7.33;2.27;;;16.90;99.90;;;;;;5020300;28;20060;-59
2022/06/20 10:30:12;;;;;;;10.68;2.10;;;17.00;99.90;;;;;;5021860;28;20042;-59
2022/06/20 10:32:55;;;;;;;6.30;2.13;;;17.10;99.90;;;;;;5021492;28;20046;-59
2022/06/20 10:35:45;;;;;;;9.38;1.90;;;17.30;99.90;;;;;;5020900;28;20076;-60
2022/06/20 10:38:28;;;;;;;9.00;2.55;;;17.30;99.90;;;;;;5020836;28;20045;-60
2022/06/20 10:41:14;;;;;;;7.95;1.92;;;17.20;99.90;;;;;;5020283;28;20129;-59
2022/06/20 10:43:45;;;;;;;10.90;2.08;;;17.30;99.90;;;;;;5020496;28;20057;-60
2022/06/20 10:46:14;;;;;;;8.25;2.50;;;17.50;99.90;;;;;;5021665;28;20097;-60
2022/06/20 10:49:23;;;;;;;5.68;1.80;;;17.30;99.90;;;;;;5020429;28;20124;-60
2022/06/20 10:52:11;;;;;;;8.45;2.42;;;16.90;99.90;;;;;;4960273;29;20043;-60
2022/06/20 10:54:58;;;;;;;9.70;2.05;;;16.90;99.90;;;;;;5021295;28;20088;-60
2022/06/20 10:57:48;;;;;;;8.02;1.88;;;16.80;99.90;;;;;;5020325;28;20045;-59
2022/06/20 11:00:17;;;;;;;6.75;2.08;;;17.00;99.90;;;;;;5021302;28;20105;-60
2022/06/20 11:03:09;;;;;;;7.00;2.10;;;17.00;99.90;;;;;;5021056;28;20057;-60
2022/06/20 11:05:46;;;;;;;6.93;2.20;;;16.80;99.90;;;;;;5020049;28;20122;-56
2022/06/20 11:08:39;;;;;;;8.75;1.98;;;17.40;99.90;;;;;;5021540;28;20046;-58
2022/06/20 11:11:36;;;;;;;7.40;2.03;;;16.90;99.90;;;;;;5020383;28;20080;-60
2022/06/20 11:14:26;;;;;;;9.88;2.58;;;16.90;99.90;;;;;;5019721;28;20054;-60
2022/06/20 11:17:23;;;;;;;8.90;1.95;;;17.30;99.90;;;;;;5021248;28;20046;-60
2022/06/20 11:19:57;;;;;;;8.05;2.20;;;17.50;99.90;;;;;;5020602;28;20371;-60
2022/06/20 11:22:36;;;;;;;5.25;1.80;;;17.60;99.90;;;;;;5031541;28;20060;-60
2022/06/20 11:25:41;;;;;;;7.72;1.92;;;17.80;99.90;;;;;;5040874;28;20091;-59
2022/06/20 11:28:12;;;;;;;8.32;2.42;;;18.00;99.90;;;;;;5039928;28;20080;-60
2022/06/20 11:30:56;;;;;;;7.18;1.85;;;17.60;99.90;;;;;;5039897;28;20524;-59
2022/06/20 11:34:02;;;;;;;6.82;2.45;;;17.00;99.90;;;;;;5040755;28;20046;-60
2022/06/20 11:37:05;;;;;;;7.63;2.50;;;17.10;99.90;;;;;;5039215;28;20060;-59
2022/06/20 11:40:10;;;;;;;7.57;2.30;;;17.70;99.90;;;;;;5035591;28;20041;-60
2022/06/20 11:42:54;;;;;;;15.23;3.85;;;17.20;99.90;;;;;;5041007;28;20054;-60
2022/06/20 11:45:46;;;;;;;6.75;2.20;;;17.40;99.90;;;;;;5039186;28;20072;-60
2022/06/20 11:48:33;;;;;;;7.53;2.72;;;17.30;99.90;;;;;;5039087;28;20095;-60
2022/06/20 11:51:15;;;;;;;5.55;1.98;;;17.50;99.90;;;;;;5040371;28;20105;-58
2022/06/20 11:54:13;;;;;;;8.55;2.45;;;17.70;99.90;;;;;;5039158;28;20057;-60
2022/06/20 11:56:44;;;;;;;6.32;1.83;;;17.40;99.90;;;;;;5039485;28;20042;-60
2022/06/20 11:59:34;;;;;;;5.90;1.83;;;17.20;99.90;;;;;;5038846;28;20141;-60
2022/06/20 12:02:26;;;;;;;5.30;1.88;;;17.50;99.90;;;;;;5038730;28;20052;-60
2022/06/20 12:05:02;;;;;;;7.10;1.95;;;17.20;99.90;;;;;;5039078;28;20084;-57
2022/06/20 12:07:37;;;;;;;6.63;1.98;;;17.50;99.90;;;;;;5039976;28;20053;-59
2022/06/20 12:10:21;;;;;;;6.85;1.90;;;17.40;99.90;;;;;;5038852;28;20672;-59
2022/06/20 12:13:00;;;;;;;5.60;1.73;;;17.90;99.90;;;;;;5039976;28;20520;-59
2022/06/20 12:15:44;;;;;;;6.72;2.00;;;17.40;99.90;;;;;;5038892;28;20072;-60
2022/06/20 12:18:39;;;;;;;6.13;2.30;;;17.60;99.90;;;;;;5039007;28;20080;-60
2022/06/20 12:24:06;;;;;;;6.93;1.48;;;17.60;99.90;;;;;;5019120;28;20057;-60
2022/06/20 12:26:39;;;;;;;7.40;1.95;;;17.40;99.90;;;;;;5018905;28;20048;-60
2022/06/20 12:29:14;;;;;;;8.65;1.88;;;17.10;99.90;;;;;;5019789;28;20053;-60
2022/06/20 12:31:45;;;;;;;6.88;1.73;;;17.40;99.90;;;;;;5018047;28;20078;-59
2022/06/20 12:34:13;;;;;;;5.97;1.80;;;17.60;99.90;;;;;;5020031;28;20104;-59
2022/06/20 12:37:04;;;;;;;6.65;1.85;;;17.50;99.90;;;;;;5018207;28;20042;-59
2022/06/20 12:39:40;;;;;;;7.25;1.70;;;17.50;99.90;;;;;;5018886;28;20045;-60
2022/06/20 12:42:19;;;;;;;6.40;1.75;;;17.30;99.90;;;;;;5019748;28;20078;-59
2022/06/20 12:44:53;;;;;;;7.03;1.70;;;17.50;99.90;;;;;;5018144;28;20097;-59
2022/06/20 12:47:44;;;;;;;7.20;2.38;;;17.70;99.90;;;;;;5019407;28;20073;-60
2022/06/20 12:50:28;;;;;;;6.35;1.83;;;17.50;99.90;;;;;;5019594;28;20441;-59
2022/06/20 12:52:57;;;;;;;7.97;2.08;;;17.20;99.90;;;;;;5018068;28;20692;-59
2022/06/20 12:55:39;;;;;;;6.35;2.00;;;16.70;99.90;;;;;;5019544;28;20056;-59
2022/06/20 12:58:30;;;;;;;7.97;2.15;;;16.40;99.90;;;;;;5018652;28;20125;-60
2022/06/20 13:01:08;;;;;;;8.30;2.03;;;17.00;99.90;;;;;;5017625;28;20106;-60
2022/06/20 13:04:07;;;;;;;7.90;2.22;;;17.30;99.90;;;;;;5019704;28;20070;-59
2022/06/20 13:06:47;;;;;;;7.25;2.00;;;17.30;99.90;;;;;;5017976;28;20062;-59
2022/06/20 13:09:43;;;;;;;6.28;1.95;;;17.30;99.90;;;;;;5018532;28;20097;-60
2022/06/20 13:12:33;;;;;;;7.13;2.35;;;17.70;99.90;;;;;;5019595;28;20034;-60
2022/06/20 13:15:17;;;;;;;7.47;1.95;;;17.30;99.90;;;;;;5016693;28;20050;-60
2022/06/20 13:17:52;;;;;;;6.88;2.22;;;16.90;99.90;;;;;;5018850;28;20046;-60
2022/06/20 13:20:40;;;;;;;12.52;2.70;;;17.50;99.90;;;;;;5019397;28;20034;-60
2022/06/20 13:23:15;;;;;;;7.88;2.00;;;17.20;99.90;;;;;;5035072;28;20045;-60
2022/06/20 13:26:02;;;;;;;9.15;2.08;;;17.10;99.90;;;;;;5039030;28;20050;-59
2022/06/20 13:28:27;;;;;;;6.43;2.05;;;17.20;99.90;;;;;;5038365;28;20056;-60
2022/06/20 13:31:15;;;;;;;7.85;2.08;;;17.00;99.90;;;;;;5037813;28;20515;-60
2022/06/20 13:33:53;;;;;;;7.55;2.00;;;17.30;99.90;;;;;;5039046;28;20057;-58
2022/06/20 13:36:47;;;;;;;5.97;1.83;;;17.30;99.90;;;;;;5037481;28;20117;-60
2022/06/20 13:39:21;;;;;;;6.95;2.00;;;17.20;99.90;;;;;;5037999;28;20521;-60
2022/06/20 13:41:49;;;;;;;8.00;2.97;;;17.00;99.90;;;;;;5038958;28;20549;-60
2022/06/20 13:44:38;;;;;;;7.47;1.77;;;17.40;99.90;;;;;;5037315;28;20077;-60
2022/06/20 13:47:31;;;;;;;10.35;1.95;;;17.60;99.90;;;;;;5038263;28;20038;-60
2022/06/20 13:50:24;;;;;;;9.25;1.92;;;17.40;99.90;;;;;;5038477;28;20069;-60